createdAt,value
2022-10-31T00:00:09.752Z,101732.66
2022-10-31T00:04:22.855Z,101727.53
2022-10-31T00:08:34.344Z,101733.19
2022-10-31T00:12:45.828Z,101732.38
2022-10-31T00:16:57.313Z,101742.78
2022-10-31T00:21:08.911Z,101735.53
2022-10-31T00:25:21.615Z,101737.88
2022-10-31T00:29:33.081Z,101733.13
2022-10-31T00:33:44.751Z,101732.72
2022-10-31T00:37:56.249Z,101737.91
2022-10-31T00:42:07.743Z,101735.25
2022-10-31T00:46:19.245Z,101740.50
2022-10-31T00:50:30.987Z,101723.09
2022-10-31T00:54:42.883Z,101739.03
2022-10-31T00:58:54.412Z,101708.81
2022-10-31T01:03:06.146Z,101749.25
2022-10-31T01:07:17.636Z,101750.28
2022-10-31T01:11:30.131Z,101744.91
2022-10-31T01:15:41.664Z,101743.25
2022-10-31T01:19:53.156Z,101747.81
2022-10-31T01:24:05.207Z,101740.34
2022-10-31T01:28:16.835Z,101736.19
2022-10-31T01:32:29.814Z,101740.38
2022-10-31T01:36:41.805Z,101734.13
2022-10-31T01:40:54.756Z,101727.50
2022-10-31T01:45:10.874Z,101708.63
2022-10-31T01:49:32.956Z,101718.16
2022-10-31T01:53:46.654Z,101707.44
2022-10-31T01:58:08.071Z,101708.69
2022-10-31T02:02:20.291Z,101708.31
2022-10-31T02:06:50.536Z,101725.28
2022-10-31T02:11:03.198Z,101722.41
2022-10-31T02:15:14.738Z,101721.78
2022-10-31T02:20:09.884Z,101741.28
2022-10-31T02:24:57.684Z,101730.97
2022-10-31T02:29:27.470Z,101733.66
2022-10-31T02:33:46.790Z,101729.94
2022-10-31T02:38:11.867Z,101729.72
2022-10-31T02:42:42.762Z,101720.66
2022-10-31T02:47:04.655Z,101731.00
2022-10-31T02:51:18.659Z,101722.13
2022-10-31T02:55:30.100Z,101730.84
2022-10-31T02:59:53.990Z,101719.88
2022-10-31T03:04:42.715Z,101730.25
2022-10-31T03:09:00.204Z,101718.66
2022-10-31T03:13:34.635Z,101728.41
2022-10-31T03:17:55.081Z,101731.94
2022-10-31T03:22:33.984Z,101727.19
2022-10-31T03:26:50.087Z,101732.97
2022-10-31T03:31:06.454Z,101719.53
2022-10-31T03:35:25.298Z,101729.88
2022-10-31T03:39:40.130Z,101723.00
2022-10-31T03:43:58.040Z,101738.75
2022-10-31T03:48:10.959Z,101723.41
2022-10-31T03:52:33.783Z,101723.63
2022-10-31T03:56:53.792Z,101721.53
2022-10-31T04:01:12.646Z,101739.34
2022-10-31T04:05:25.929Z,101733.97
2022-10-31T04:09:44.971Z,101728.75
2022-10-31T04:13:58.989Z,101734.38
2022-10-31T04:18:11.729Z,101735.81
2022-10-31T04:22:23.219Z,101734.78
2022-10-31T04:26:34.752Z,101724.03
2022-10-31T04:30:46.546Z,101723.00
2022-10-31T04:34:58.887Z,101713.47
2022-10-31T04:39:10.451Z,101711.00
2022-10-31T04:43:34.850Z,101719.47
2022-10-31T04:47:46.368Z,101713.03
2022-10-31T04:51:57.822Z,101725.06
2022-10-31T04:56:09.745Z,101708.91
2022-10-31T05:00:26.288Z,101715.72
2022-10-31T05:04:37.793Z,101724.81
2022-10-31T05:08:49.454Z,101715.09
2022-10-31T05:13:03.546Z,101720.88
2022-10-31T05:17:38.179Z,101715.25
2022-10-31T05:22:08.602Z,101713.59
2022-10-31T05:26:20.366Z,101699.75
2022-10-31T05:30:33.806Z,101698.75
2022-10-31T05:34:45.483Z,101685.94
2022-10-31T05:39:15.256Z,101690.69
2022-10-31T05:43:31.511Z,101698.56
2022-10-31T05:47:50.424Z,101702.69
2022-10-31T05:52:21.970Z,101690.28
2022-10-31T05:56:42.099Z,101698.19
2022-10-31T06:00:54.613Z,101696.13
2022-10-31T06:05:06.465Z,101705.03
2022-10-31T06:09:18.179Z,101701.69
2022-10-31T06:13:30.407Z,101690.91
2022-10-31T06:18:03.255Z,101691.94
2022-10-31T06:22:18.881Z,101685.53
2022-10-31T06:26:30.338Z,101688.22
2022-10-31T06:30:41.866Z,101701.06
2022-10-31T06:34:53.321Z,101704.34
2022-10-31T06:39:05.743Z,101690.69
2022-10-31T06:43:17.451Z,101702.28
2022-10-31T06:47:29.771Z,101703.53
2022-10-31T06:51:50.339Z,101703.31
2022-10-31T06:56:02.343Z,101694.63
2022-10-31T07:00:16.191Z,101701.88
2022-10-31T07:04:29.462Z,101698.78
2022-10-31T07:08:41.353Z,101701.88
2022-10-31T07:12:57.455Z,101711.47
2022-10-31T07:17:09.140Z,101704.81
2022-10-31T07:21:24.776Z,101712.25
2022-10-31T07:25:36.449Z,101707.66
2022-10-31T07:29:52.351Z,101700.13
2022-10-31T07:34:03.876Z,101710.63
2022-10-31T07:38:34.070Z,101702.88
2022-10-31T07:42:51.030Z,101703.00
2022-10-31T07:47:25.418Z,101702.09
2022-10-31T07:52:03.254Z,101704.22
2022-10-31T07:56:50.443Z,101699.25
2022-10-31T08:01:02.047Z,101707.59
2022-10-31T08:05:23.674Z,101713.19
2022-10-31T08:10:07.833Z,101723.78
2022-10-31T08:14:20.294Z,101721.88
2022-10-31T08:18:42.084Z,101729.81
2022-10-31T08:23:03.595Z,101715.84
2022-10-31T08:27:25.543Z,101711.06
2022-10-31T08:31:57.427Z,101708.88
2022-10-31T08:36:28.665Z,101694.41
2022-10-31T08:40:50.666Z,101715.59
2022-10-31T08:45:02.371Z,101712.53
2022-10-31T08:49:15.210Z,101710.91
2022-10-31T08:53:28.813Z,101713.13
2022-10-31T08:58:06.090Z,101704.66
2022-10-31T09:02:26.761Z,101704.66
2022-10-31T09:07:15.214Z,101715.03
2022-10-31T09:11:15.599Z,101701.00
2022-10-31T09:15:48.346Z,101696.66
2022-10-31T09:20:06.178Z,101693.97
2022-10-31T09:24:20.537Z,101701.50
2022-10-31T09:28:33.188Z,101690.81
2022-10-31T09:33:00.988Z,101691.78
2022-10-31T09:37:12.562Z,101654.84
2022-10-31T09:42:22.377Z,101653.66
2022-10-31T09:46:51.078Z,101647.72
2022-10-31T09:51:16.259Z,101662.38
2022-10-31T09:55:45.045Z,101663.09
2022-10-31T09:59:59.391Z,101657.72
2022-10-31T10:04:34.612Z,101669.25
2022-10-31T10:08:53.922Z,101654.13
2022-10-31T10:13:53.246Z,101650.81
2022-10-31T10:18:17.961Z,101650.13
2022-10-31T10:22:58.943Z,101614.06
2022-10-31T10:27:15.776Z,101613.63
2022-10-31T10:31:36.015Z,101633.78
2022-10-31T10:35:56.496Z,101638.13
2022-10-31T10:40:17.179Z,101628.06
2022-10-31T10:44:47.392Z,101622.00
2022-10-31T10:49:29.595Z,101610.16
2022-10-31T10:54:06.552Z,101589.84
2022-10-31T10:58:21.846Z,101575.78
2022-10-31T11:02:33.715Z,101570.66
2022-10-31T11:06:45.174Z,101577.19
2022-10-31T11:11:04.063Z,101548.78
2022-10-31T11:15:25.202Z,101543.94
2022-10-31T11:19:36.940Z,101537.41
2022-10-31T11:23:48.423Z,101541.28
2022-10-31T11:28:09.779Z,101504.97
2022-10-31T11:32:27.254Z,101514.69
2022-10-31T11:36:42.963Z,101505.34
2022-10-31T11:40:58.417Z,101482.47
2022-10-31T11:45:25.063Z,101478.94
2022-10-31T11:49:45.574Z,101467.78
2022-10-31T11:54:02.737Z,101471.00
2022-10-31T11:58:26.280Z,101471.53
2022-10-31T12:02:37.859Z,101473.97
2022-10-31T12:06:55.793Z,101449.69
2022-10-31T12:11:28.932Z,101442.34
2022-10-31T12:15:53.183Z,101433.97
2022-10-31T12:20:35.128Z,101411.22
2022-10-31T12:24:59.272Z,101396.78
2022-10-31T12:29:20.918Z,101400.03
2022-10-31T12:33:59.283Z,101394.81
2022-10-31T12:38:46.997Z,101379.81
2022-10-31T12:43:24.034Z,101364.91
2022-10-31T12:48:01.844Z,101358.13
2022-10-31T12:52:42.100Z,101333.94
2022-10-31T12:57:17.408Z,101332.59
2022-10-31T13:01:42.450Z,101318.16
2022-10-31T13:06:00.036Z,101308.06
2022-10-31T13:10:26.549Z,101298.53
2022-10-31T13:14:43.820Z,101289.28
2022-10-31T13:19:02.077Z,101284.63
2022-10-31T13:28:13.652Z,101261.16
2022-10-31T13:32:29.753Z,101255.97
2022-10-31T13:37:17.194Z,101248.88
2022-10-31T13:42:00.552Z,101228.72
2022-10-31T13:46:24.566Z,101215.38
2022-10-31T13:50:36.034Z,101208.28
2022-10-31T13:54:49.732Z,101204.75
2022-10-31T13:59:24.417Z,101212.66
2022-10-31T14:08:24.523Z,101193.03
2022-10-31T14:12:42.675Z,101181.84
2022-10-31T14:16:57.525Z,101172.59
2022-10-31T14:21:38.204Z,101162.78
2022-10-31T14:25:49.683Z,101165.47
2022-10-31T14:30:15.584Z,101158.66
2022-10-31T14:34:32.015Z,101164.34
2022-10-31T14:38:43.690Z,101143.31
2022-10-31T14:43:04.204Z,101132.72
2022-10-31T14:47:32.437Z,101129.69
2022-10-31T14:51:46.973Z,101124.47
2022-10-31T14:56:04.275Z,101117.69
2022-10-31T15:00:21.124Z,101110.88
2022-10-31T15:04:35.405Z,101105.41
2022-10-31T15:08:52.584Z,101099.38
2022-10-31T15:13:11.812Z,101104.81
2022-10-31T15:17:25.279Z,101085.16
2022-10-31T15:21:42.955Z,101075.09
2022-10-31T15:26:21.869Z,101064.97
2022-10-31T15:30:33.344Z,101051.91
2022-10-31T15:34:45.524Z,101043.97
2022-10-31T15:39:00.934Z,101048.84
2022-10-31T15:43:17.452Z,101046.09
2022-10-31T15:47:31.124Z,101039.31
2022-10-31T15:51:42.644Z,101038.50
2022-10-31T15:55:57.091Z,101026.47
2022-10-31T16:00:34.105Z,101022.38
2022-10-31T16:04:51.503Z,101010.66
2022-10-31T16:09:05.326Z,101017.13
2022-10-31T16:13:16.847Z,101012.97
2022-10-31T16:17:29.024Z,100987.72
2022-10-31T16:21:40.683Z,100993.72
2022-10-31T16:25:52.743Z,100990.19
2022-10-31T16:30:30.724Z,100985.81
2022-10-31T16:34:42.334Z,100973.00
2022-10-31T16:38:57.192Z,100981.38
2022-10-31T16:43:12.382Z,100984.06
2022-10-31T16:47:26.111Z,100974.50
2022-10-31T16:51:40.119Z,100964.69
2022-10-31T16:55:58.701Z,100963.28
2022-10-31T17:00:14.352Z,100966.19
2022-10-31T17:04:25.982Z,100969.41
2022-10-31T17:08:37.609Z,100967.97
2022-10-31T17:12:50.314Z,100958.41
2022-10-31T17:17:01.861Z,100952.09
2022-10-31T17:21:21.076Z,100943.09
2022-10-31T17:25:32.715Z,100944.66
2022-10-31T17:29:44.294Z,100938.16
2022-10-31T17:34:02.329Z,100909.78
2022-10-31T17:38:15.193Z,100932.09
2022-10-31T17:42:26.771Z,100904.41
2022-10-31T17:46:38.902Z,100921.50
2022-10-31T17:50:50.467Z,100894.56
2022-10-31T17:55:01.989Z,100920.19
2022-10-31T17:59:13.585Z,100909.53
2022-10-31T18:03:26.136Z,100912.56
2022-10-31T18:07:37.626Z,100898.09
2022-10-31T18:11:49.121Z,100907.06
2022-10-31T18:16:00.654Z,100885.81
2022-10-31T18:20:12.635Z,100875.22
2022-10-31T18:24:24.309Z,100869.22
2022-10-31T18:28:37.379Z,100864.31
2022-10-31T18:32:51.264Z,100861.84
2022-10-31T18:37:03.192Z,100871.09
2022-10-31T18:41:15.153Z,100864.31
2022-10-31T18:45:46.661Z,100866.69
2022-10-31T18:49:58.138Z,100864.75
2022-10-31T18:54:09.704Z,100863.41
2022-10-31T18:58:21.331Z,100857.03
2022-10-31T19:02:32.861Z,100858.38
2022-10-31T19:06:44.468Z,100851.28
2022-10-31T19:10:56.021Z,100842.59
2022-10-31T19:15:07.818Z,100823.00
2022-10-31T19:19:20.507Z,100839.25
2022-10-31T19:23:32.011Z,100848.41
2022-10-31T19:27:43.558Z,100851.09
2022-10-31T19:31:55.081Z,100847.84
2022-10-31T19:36:08.405Z,100842.31
2022-10-31T19:40:19.975Z,100838.22
2022-10-31T19:44:33.449Z,100836.84
2022-10-31T19:48:44.975Z,100830.56
2022-10-31T19:52:56.944Z,100823.75
2022-10-31T19:57:08.442Z,100823.75
2022-10-31T20:01:22.585Z,100823.75
2022-10-31T20:05:34.193Z,100819.41
2022-10-31T20:09:46.120Z,100817.78
2022-10-31T20:13:58.993Z,100823.25
2022-10-31T20:18:10.501Z,100813.19
2022-10-31T20:22:22.127Z,100815.31
2022-10-31T20:26:34.475Z,100802.84
2022-10-31T20:30:45.997Z,100799.00
2022-10-31T20:34:57.480Z,100793.03
2022-10-31T20:39:09.416Z,100789.22
2022-10-31T20:43:20.951Z,100779.97
2022-10-31T20:47:32.459Z,100774.81
2022-10-31T20:51:43.943Z,100771.03
2022-10-31T20:56:08.009Z,100768.88
2022-10-31T21:00:19.552Z,100772.97
2022-10-31T21:04:31.045Z,100765.63
2022-10-31T21:08:43.286Z,100771.09
2022-10-31T21:12:54.755Z,100755.94
2022-10-31T21:17:06.838Z,100767.25
2022-10-31T21:21:29.169Z,100766.44
2022-10-31T21:25:43.861Z,100742.75
2022-10-31T21:29:55.365Z,100742.25
2022-10-31T21:34:07.531Z,100742.50
2022-10-31T21:38:19.046Z,100733.28
2022-10-31T21:42:30.526Z,100736.00
2022-10-31T21:46:42.047Z,100722.72
2022-10-31T21:50:53.563Z,100709.38
2022-10-31T21:55:05.374Z,100712.66
2022-10-31T21:59:16.883Z,100690.63
2022-10-31T22:03:28.458Z,100696.59
2022-10-31T22:07:39.933Z,100690.13
2022-10-31T22:11:51.634Z,100693.56
2022-10-31T22:16:08.786Z,100676.53
2022-10-31T22:20:21.372Z,100683.31
2022-10-31T22:24:32.841Z,100676.59
2022-10-31T22:29:00.607Z,100664.72
2022-10-31T22:33:12.124Z,100656.09
2022-10-31T22:37:24.224Z,100649.63
2022-10-31T22:41:36.592Z,100656.09
2022-10-31T22:45:55.104Z,100654.38
2022-10-31T22:50:06.842Z,100656.09
2022-10-31T22:54:18.984Z,100650.69
2022-10-31T22:58:31.359Z,100647.47
2022-10-31T23:02:42.879Z,100646.66
2022-10-31T23:06:54.373Z,100642.63
2022-10-31T23:11:17.305Z,100628.63
2022-10-31T23:15:29.069Z,100622.97
2022-10-31T23:19:40.583Z,100633.59
2022-10-31T23:23:52.077Z,100614.66
2022-10-31T23:28:03.592Z,100622.34
2022-10-31T23:32:25.526Z,100606.66
2022-10-31T23:36:37.115Z,100623.75
2022-10-31T23:40:48.708Z,100593.88
2022-10-31T23:45:00.250Z,100590.09
2022-10-31T23:49:11.807Z,100605.34
2022-10-31T23:53:23.633Z,100594.25
2022-10-31T23:57:35.189Z,100597.47
